sensor_id;sensor_type;location;lat;lon;timestamp;P1;durP1;ratioP1;P2;durP2;ratioP2
69991;SDS011;57332;51.320;-0.580;2023-04-24T00:01:03;21.70;;;8.77;;
69991;SDS011;57332;51.320;-0.580;2023-04-24T00:03:30;20.80;;;8.98;;
69991;SDS011;57332;51.320;-0.580;2023-04-24T00:05:57;16.63;;;7.68;;
69991;SDS011;57332;51.320;-0.580;2023-04-24T00:08:25;19.90;;;8.88;;
69991;SDS011;57332;51.320;-0.580;2023-04-24T00:10:52;19.42;;;8.65;;
69991;SDS011;57332;51.320;-0.580;2023-04-24T00:13:19;18.92;;;8.15;;
69991;SDS011;57332;51.320;-0.580;2023-04-24T00:15:46;17.52;;;8.73;;
69991;SDS011;57332;51.320;-0.580;2023-04-24T00:18:13;18.40;;;8.35;;
69991;SDS011;57332;51.320;-0.580;2023-04-24T00:20:39;18.23;;;8.23;;
69991;SDS011;57332;51.320;-0.580;2023-04-24T00:23:06;17.35;;;8.60;;
69991;SDS011;57332;51.320;-0.580;2023-04-24T00:25:33;19.15;;;8.80;;
69991;SDS011;57332;51.320;-0.580;2023-04-24T00:28:00;16.83;;;7.57;;
69991;SDS011;57332;51.320;-0.580;2023-04-24T00:30:27;19.60;;;8.00;;
69991;SDS011;57332;51.320;-0.580;2023-04-24T00:32:54;17.00;;;8.05;;
69991;SDS011;57332;51.320;-0.580;2023-04-24T00:35:20;20.70;;;8.80;;
69991;SDS011;57332;51.320;-0.580;2023-04-24T00:37:47;19.30;;;8.48;;
69991;SDS011;57332;51.320;-0.580;2023-04-24T00:40:14;18.65;;;8.20;;
69991;SDS011;57332;51.320;-0.580;2023-04-24T00:42:41;19.02;;;8.10;;
69991;SDS011;57332;51.320;-0.580;2023-04-24T00:45:09;19.52;;;8.63;;
69991;SDS011;57332;51.320;-0.580;2023-04-24T00:47:36;19.90;;;9.38;;
69991;SDS011;57332;51.320;-0.580;2023-04-24T00:50:04;20.23;;;8.98;;
69991;SDS011;57332;51.320;-0.580;2023-04-24T00:52:31;19.48;;;9.13;;
69991;SDS011;57332;51.320;-0.580;2023-04-24T00:54:59;17.55;;;7.63;;
69991;SDS011;57332;51.320;-0.580;2023-04-24T00:57:26;20.15;;;8.27;;
69991;SDS011;57332;51.320;-0.580;2023-04-24T00:59:53;19.35;;;8.13;;
69991;SDS011;57332;51.320;-0.580;2023-04-24T01:02:21;21.48;;;8.93;;
69991;SDS011;57332;51.320;-0.580;2023-04-24T01:04:50;19.17;;;8.95;;
69991;SDS011;57332;51.320;-0.580;2023-04-24T01:07:18;16.88;;;8.65;;
69991;SDS011;57332;51.320;-0.580;2023-04-24T01:09:47;19.23;;;8.52;;
69991;SDS011;57332;51.320;-0.580;2023-04-24T01:12:15;17.77;;;8.38;;
69991;SDS011;57332;51.320;-0.580;2023-04-24T01:14:42;17.80;;;8.43;;
69991;SDS011;57332;51.320;-0.580;2023-04-24T01:17:09;19.35;;;8.40;;
69991;SDS011;57332;51.320;-0.580;2023-04-24T01:19:36;18.23;;;7.82;;
69991;SDS011;57332;51.320;-0.580;2023-04-24T01:22:08;18.58;;;7.47;;
69991;SDS011;57332;51.320;-0.580;2023-04-24T01:27:02;17.17;;;7.13;;
69991;SDS011;57332;51.320;-0.580;2023-04-24T01:29:28;18.83;;;8.10;;
69991;SDS011;57332;51.320;-0.580;2023-04-24T01:31:55;20.15;;;8.45;;
69991;SDS011;57332;51.320;-0.580;2023-04-24T01:34:23;19.20;;;8.23;;
69991;SDS011;57332;51.320;-0.580;2023-04-24T01:36:50;17.52;;;8.60;;
69991;SDS011;57332;51.320;-0.580;2023-04-24T01:39:17;19.17;;;8.73;;
69991;SDS011;57332;51.320;-0.580;2023-04-24T01:41:44;19.95;;;8.75;;
69991;SDS011;57332;51.320;-0.580;2023-04-24T01:44:10;17.73;;;8.75;;
69991;SDS011;57332;51.320;-0.580;2023-04-24T01:46:37;17.10;;;7.15;;
69991;SDS011;57332;51.320;-0.580;2023-04-24T01:49:04;17.25;;;8.38;;
69991;SDS011;57332;51.320;-0.580;2023-04-24T01:51:32;20.58;;;9.20;;
69991;SDS011;57332;51.320;-0.580;2023-04-24T01:53:59;19.25;;;8.07;;
69991;SDS011;57332;51.320;-0.580;2023-04-24T01:56:25;21.55;;;8.65;;
69991;SDS011;57332;51.320;-0.580;2023-04-24T01:58:55;22.90;;;10.10;;
69991;SDS011;57332;51.320;-0.580;2023-04-24T02:01:25;22.17;;;8.70;;
69991;SDS011;57332;51.320;-0.580;2023-04-24T02:03:52;21.77;;;9.27;;
69991;SDS011;57332;51.320;-0.580;2023-04-24T02:06:19;22.45;;;9.75;;
69991;SDS011;57332;51.320;-0.580;2023-04-24T02:08:46;20.52;;;9.43;;
69991;SDS011;57332;51.320;-0.580;2023-04-24T02:11:13;24.73;;;10.27;;
69991;SDS011;57332;51.320;-0.580;2023-04-24T02:13:40;21.40;;;10.23;;
69991;SDS011;57332;51.320;-0.580;2023-04-24T02:16:07;20.05;;;9.18;;
69991;SDS011;57332;51.320;-0.580;2023-04-24T02:18:33;20.50;;;8.75;;
69991;SDS011;57332;51.320;-0.580;2023-04-24T02:21:00;21.55;;;9.23;;
69991;SDS011;57332;51.320;-0.580;2023-04-24T02:23:27;18.17;;;9.45;;
69991;SDS011;57332;51.320;-0.580;2023-04-24T02:25:54;20.27;;;8.98;;
69991;SDS011;57332;51.320;-0.580;2023-04-24T02:28:21;20.33;;;8.68;;
69991;SDS011;57332;51.320;-0.580;2023-04-24T02:30:48;20.38;;;8.38;;
69991;SDS011;57332;51.320;-0.580;2023-04-24T02:33:14;17.40;;;7.50;;
69991;SDS011;57332;51.320;-0.580;2023-04-24T02:35:41;15.70;;;7.82;;
69991;SDS011;57332;51.320;-0.580;2023-04-24T02:38:08;16.35;;;6.97;;
69991;SDS011;57332;51.320;-0.580;2023-04-24T02:40:35;18.55;;;8.10;;
69991;SDS011;57332;51.320;-0.580;2023-04-24T02:43:02;17.17;;;7.82;;
69991;SDS011;57332;51.320;-0.580;2023-04-24T02:45:29;16.83;;;8.52;;
69991;SDS011;57332;51.320;-0.580;2023-04-24T02:47:56;17.05;;;7.40;;
69991;SDS011;57332;51.320;-0.580;2023-04-24T02:50:23;16.13;;;7.32;;
69991;SDS011;57332;51.320;-0.580;2023-04-24T02:52:50;17.25;;;8.23;;
69991;SDS011;57332;51.320;-0.580;2023-04-24T02:55:16;16.00;;;7.72;;
69991;SDS011;57332;51.320;-0.580;2023-04-24T02:57:43;17.70;;;8.02;;
69991;SDS011;57332;51.320;-0.580;2023-04-24T03:00:10;15.18;;;7.93;;
69991;SDS011;57332;51.320;-0.580;2023-04-24T03:02:38;17.70;;;7.57;;
69991;SDS011;57332;51.320;-0.580;2023-04-24T03:05:05;16.17;;;7.75;;
69991;SDS011;57332;51.320;-0.580;2023-04-24T03:07:32;17.42;;;7.68;;
69991;SDS011;57332;51.320;-0.580;2023-04-24T03:09:58;21.20;;;8.73;;
69991;SDS011;57332;51.320;-0.580;2023-04-24T03:12:25;21.23;;;9.35;;
69991;SDS011;57332;51.320;-0.580;2023-04-24T03:14:52;18.20;;;8.27;;
69991;SDS011;57332;51.320;-0.580;2023-04-24T03:17:19;20.63;;;8.25;;
69991;SDS011;57332;51.320;-0.580;2023-04-24T03:19:46;18.77;;;8.85;;
69991;SDS011;57332;51.320;-0.580;2023-04-24T03:22:13;21.52;;;8.68;;
69991;SDS011;57332;51.320;-0.580;2023-04-24T03:24:40;20.13;;;9.00;;
69991;SDS011;57332;51.320;-0.580;2023-04-24T03:27:07;20.70;;;9.05;;
69991;SDS011;57332;51.320;-0.580;2023-04-24T03:29:33;19.83;;;9.80;;
69991;SDS011;57332;51.320;-0.580;2023-04-24T03:32:00;18.42;;;8.10;;
69991;SDS011;57332;51.320;-0.580;2023-04-24T03:34:27;18.38;;;8.80;;
69991;SDS011;57332;51.320;-0.580;2023-04-24T03:36:54;20.95;;;8.77;;
69991;SDS011;57332;51.320;-0.580;2023-04-24T03:39:21;20.92;;;8.52;;
69991;SDS011;57332;51.320;-0.580;2023-04-24T03:41:48;20.00;;;8.80;;
69991;SDS011;57332;51.320;-0.580;2023-04-24T03:44:15;21.75;;;9.45;;
69991;SDS011;57332;51.320;-0.580;2023-04-24T03:46:41;21.23;;;9.23;;
69991;SDS011;57332;51.320;-0.580;2023-04-24T03:49:08;19.23;;;8.90;;
69991;SDS011;57332;51.320;-0.580;2023-04-24T03:51:35;22.05;;;9.02;;
69991;SDS011;57332;51.320;-0.580;2023-04-24T03:54:03;22.85;;;8.88;;
69991;SDS011;57332;51.320;-0.580;2023-04-24T03:56:30;20.58;;;9.25;;
69991;SDS011;57332;51.320;-0.580;2023-04-24T03:58:56;19.98;;;8.48;;
69991;SDS011;57332;51.320;-0.580;2023-04-24T04:01:23;20.75;;;8.23;;
69991;SDS011;57332;51.320;-0.580;2023-04-24T04:03:51;18.60;;;8.70;;
69991;SDS011;57332;51.320;-0.580;2023-04-24T04:06:18;18.25;;;8.63;;
69991;SDS011;57332;51.320;-0.580;2023-04-24T04:08:46;19.90;;;8.73;;
69991;SDS011;57332;51.320;-0.580;2023-04-24T04:11:12;21.45;;;8.82;;
69991;SDS011;57332;51.320;-0.580;2023-04-24T04:13:39;19.98;;;9.43;;
69991;SDS011;57332;51.320;-0.580;2023-04-24T04:16:06;20.35;;;8.70;;
69991;SDS011;57332;51.320;-0.580;2023-04-24T04:18:33;17.15;;;9.00;;
69991;SDS011;57332;51.320;-0.580;2023-04-24T04:21:00;17.38;;;8.27;;
69991;SDS011;57332;51.320;-0.580;2023-04-24T04:23:27;16.60;;;7.35;;
69991;SDS011;57332;51.320;-0.580;2023-04-24T04:25:54;17.70;;;8.38;;
69991;SDS011;57332;51.320;-0.580;2023-04-24T04:28:21;17.73;;;8.43;;
69991;SDS011;57332;51.320;-0.580;2023-04-24T04:30:48;17.42;;;8.25;;
69991;SDS011;57332;51.320;-0.580;2023-04-24T04:33:16;17.83;;;8.40;;
69991;SDS011;57332;51.320;-0.580;2023-04-24T04:35:42;18.75;;;7.88;;
69991;SDS011;57332;51.320;-0.580;2023-04-24T04:38:09;15.75;;;7.95;;
69991;SDS011;57332;51.320;-0.580;2023-04-24T04:40:37;14.73;;;7.38;;
69991;SDS011;57332;51.320;-0.580;2023-04-24T04:43:04;18.65;;;8.40;;
69991;SDS011;57332;51.320;-0.580;2023-04-24T04:45:31;17.45;;;8.10;;
69991;SDS011;57332;51.320;-0.580;2023-04-24T04:47:59;15.60;;;7.57;;
69991;SDS011;57332;51.320;-0.580;2023-04-24T04:50:27;16.35;;;7.13;;
69991;SDS011;57332;51.320;-0.580;2023-04-24T04:52:54;17.20;;;8.00;;
69991;SDS011;57332;51.320;-0.580;2023-04-24T04:55:21;14.45;;;7.15;;
69991;SDS011;57332;51.320;-0.580;2023-04-24T04:57:48;14.85;;;6.72;;
69991;SDS011;57332;51.320;-0.580;2023-04-24T05:00:15;16.27;;;7.53;;
69991;SDS011;57332;51.320;-0.580;2023-04-24T05:02:42;15.13;;;7.00;;
69991;SDS011;57332;51.320;-0.580;2023-04-24T05:05:09;14.80;;;7.00;;
69991;SDS011;57332;51.320;-0.580;2023-04-24T05:07:36;12.52;;;6.25;;
69991;SDS011;57332;51.320;-0.580;2023-04-24T05:10:03;15.95;;;7.10;;
69991;SDS011;57332;51.320;-0.580;2023-04-24T05:12:30;14.27;;;6.70;;
69991;SDS011;57332;51.320;-0.580;2023-04-24T05:14:57;15.48;;;6.80;;
69991;SDS011;57332;51.320;-0.580;2023-04-24T05:17:24;14.55;;;6.93;;
69991;SDS011;57332;51.320;-0.580;2023-04-24T05:19:51;14.07;;;7.32;;
69991;SDS011;57332;51.320;-0.580;2023-04-24T05:22:18;14.93;;;7.70;;
69991;SDS011;57332;51.320;-0.580;2023-04-24T05:24:47;14.45;;;6.85;;
69991;SDS011;57332;51.320;-0.580;2023-04-24T05:27:14;12.48;;;6.18;;
69991;SDS011;57332;51.320;-0.580;2023-04-24T05:29:41;13.70;;;6.65;;
69991;SDS011;57332;51.320;-0.580;2023-04-24T05:32:09;12.73;;;6.75;;
69991;SDS011;57332;51.320;-0.580;2023-04-24T05:34:35;13.00;;;6.22;;
69991;SDS011;57332;51.320;-0.580;2023-04-24T05:37:03;12.65;;;6.50;;
69991;SDS011;57332;51.320;-0.580;2023-04-24T05:39:30;15.75;;;6.95;;
69991;SDS011;57332;51.320;-0.580;2023-04-24T05:41:57;13.43;;;6.60;;
69991;SDS011;57332;51.320;-0.580;2023-04-24T05:44:24;14.65;;;6.60;;
69991;SDS011;57332;51.320;-0.580;2023-04-24T05:46:52;15.25;;;7.18;;
69991;SDS011;57332;51.320;-0.580;2023-04-24T05:49:19;13.57;;;6.30;;
69991;SDS011;57332;51.320;-0.580;2023-04-24T05:51:46;12.95;;;6.03;;
69991;SDS011;57332;51.320;-0.580;2023-04-24T05:54:12;12.23;;;6.15;;
69991;SDS011;57332;51.320;-0.580;2023-04-24T05:56:39;12.98;;;6.03;;
69991;SDS011;57332;51.320;-0.580;2023-04-24T05:59:08;14.43;;;6.65;;
69991;SDS011;57332;51.320;-0.580;2023-04-24T06:01:35;14.63;;;7.25;;
69991;SDS011;57332;51.320;-0.580;2023-04-24T06:04:03;13.75;;;7.10;;
69991;SDS011;57332;51.320;-0.580;2023-04-24T06:06:30;14.35;;;7.38;;
69991;SDS011;57332;51.320;-0.580;2023-04-24T06:08:57;15.77;;;7.80;;
69991;SDS011;57332;51.320;-0.580;2023-04-24T06:11:25;12.68;;;6.65;;
69991;SDS011;57332;51.320;-0.580;2023-04-24T06:13:52;16.58;;;7.78;;
69991;SDS011;57332;51.320;-0.580;2023-04-24T06:16:18;15.95;;;7.38;;
69991;SDS011;57332;51.320;-0.580;2023-04-24T06:18:45;15.60;;;7.18;;
69991;SDS011;57332;51.320;-0.580;2023-04-24T06:21:14;17.10;;;8.40;;
69991;SDS011;57332;51.320;-0.580;2023-04-24T06:23:41;17.60;;;8.27;;
69991;SDS011;57332;51.320;-0.580;2023-04-24T06:26:08;14.70;;;7.60;;
69991;SDS011;57332;51.320;-0.580;2023-04-24T06:28:35;16.17;;;7.35;;
69991;SDS011;57332;51.320;-0.580;2023-04-24T06:31:02;14.35;;;7.38;;
69991;SDS011;57332;51.320;-0.580;2023-04-24T06:33:29;16.60;;;8.18;;
69991;SDS011;57332;51.320;-0.580;2023-04-24T06:35:56;17.20;;;7.38;;
69991;SDS011;57332;51.320;-0.580;2023-04-24T06:38:23;13.90;;;7.03;;
69991;SDS011;57332;51.320;-0.580;2023-04-24T06:40:50;14.50;;;7.40;;
69991;SDS011;57332;51.320;-0.580;2023-04-24T06:43:17;15.63;;;7.18;;
69991;SDS011;57332;51.320;-0.580;2023-04-24T06:45:44;15.82;;;7.18;;
69991;SDS011;57332;51.320;-0.580;2023-04-24T06:48:11;15.38;;;7.50;;
69991;SDS011;57332;51.320;-0.580;2023-04-24T06:50:38;14.90;;;7.68;;
69991;SDS011;57332;51.320;-0.580;2023-04-24T06:53:05;16.52;;;7.18;;
69991;SDS011;57332;51.320;-0.580;2023-04-24T06:55:32;14.25;;;6.82;;
69991;SDS011;57332;51.320;-0.580;2023-04-24T06:57:59;16.75;;;6.65;;
69991;SDS011;57332;51.320;-0.580;2023-04-24T07:00:26;15.05;;;6.65;;
69991;SDS011;57332;51.320;-0.580;2023-04-24T07:02:53;13.20;;;6.75;;
69991;SDS011;57332;51.320;-0.580;2023-04-24T07:05:20;12.40;;;6.82;;
69991;SDS011;57332;51.320;-0.580;2023-04-24T07:07:47;13.90;;;6.72;;
69991;SDS011;57332;51.320;-0.580;2023-04-24T07:10:14;15.27;;;7.78;;
69991;SDS011;57332;51.320;-0.580;2023-04-24T07:12:41;13.85;;;7.72;;
69991;SDS011;57332;51.320;-0.580;2023-04-24T07:15:08;13.52;;;7.25;;
69991;SDS011;57332;51.320;-0.580;2023-04-24T07:17:35;13.55;;;6.15;;
69991;SDS011;57332;51.320;-0.580;2023-04-24T07:20:02;15.85;;;7.22;;
69991;SDS011;57332;51.320;-0.580;2023-04-24T07:22:29;15.15;;;7.40;;
69991;SDS011;57332;51.320;-0.580;2023-04-24T07:24:56;14.80;;;6.57;;
69991;SDS011;57332;51.320;-0.580;2023-04-24T07:27:24;16.08;;;7.65;;
69991;SDS011;57332;51.320;-0.580;2023-04-24T07:29:51;14.75;;;6.45;;
69991;SDS011;57332;51.320;-0.580;2023-04-24T07:32:18;14.70;;;6.50;;
69991;SDS011;57332;51.320;-0.580;2023-04-24T07:34:45;13.90;;;6.65;;
69991;SDS011;57332;51.320;-0.580;2023-04-24T07:37:12;13.77;;;7.10;;
69991;SDS011;57332;51.320;-0.580;2023-04-24T07:39:39;12.15;;;6.40;;
69991;SDS011;57332;51.320;-0.580;2023-04-24T07:42:08;12.27;;;5.75;;
69991;SDS011;57332;51.320;-0.580;2023-04-24T07:44:35;13.63;;;6.63;;
69991;SDS011;57332;51.320;-0.580;2023-04-24T07:47:02;14.50;;;6.63;;
69991;SDS011;57332;51.320;-0.580;2023-04-24T07:49:29;12.57;;;6.45;;
69991;SDS011;57332;51.320;-0.580;2023-04-24T07:51:56;13.13;;;6.97;;
69991;SDS011;57332;51.320;-0.580;2023-04-24T07:54:23;13.82;;;7.03;;
69991;SDS011;57332;51.320;-0.580;2023-04-24T07:56:49;12.20;;;6.13;;
69991;SDS011;57332;51.320;-0.580;2023-04-24T07:59:16;12.18;;;6.70;;
69991;SDS011;57332;51.320;-0.580;2023-04-24T08:01:43;13.18;;;5.68;;
69991;SDS011;57332;51.320;-0.580;2023-04-24T08:04:10;11.55;;;6.05;;
69991;SDS011;57332;51.320;-0.580;2023-04-24T08:06:37;12.15;;;5.95;;
69991;SDS011;57332;51.320;-0.580;2023-04-24T08:09:04;10.57;;;5.70;;
69991;SDS011;57332;51.320;-0.580;2023-04-24T08:11:31;12.23;;;6.07;;
69991;SDS011;57332;51.320;-0.580;2023-04-24T08:13:58;11.82;;;5.95;;
69991;SDS011;57332;51.320;-0.580;2023-04-24T08:16:25;11.90;;;5.25;;
69991;SDS011;57332;51.320;-0.580;2023-04-24T08:18:52;11.40;;;5.13;;
69991;SDS011;57332;51.320;-0.580;2023-04-24T08:21:19;9.23;;;5.72;;
69991;SDS011;57332;51.320;-0.580;2023-04-24T08:23:47;9.98;;;6.10;;
69991;SDS011;57332;51.320;-0.580;2023-04-24T08:26:14;10.25;;;5.28;;
69991;SDS011;57332;51.320;-0.580;2023-04-24T08:28:41;11.45;;;5.40;;
69991;SDS011;57332;51.320;-0.580;2023-04-24T08:31:08;12.52;;;5.72;;
69991;SDS011;57332;51.320;-0.580;2023-04-24T08:33:35;9.63;;;4.95;;
69991;SDS011;57332;51.320;-0.580;2023-04-24T08:36:03;11.63;;;5.55;;
69991;SDS011;57332;51.320;-0.580;2023-04-24T08:38:30;9.52;;;4.57;;
69991;SDS011;57332;51.320;-0.580;2023-04-24T08:40:58;11.82;;;4.90;;
69991;SDS011;57332;51.320;-0.580;2023-04-24T08:43:25;9.70;;;3.83;;
69991;SDS011;57332;51.320;-0.580;2023-04-24T08:45:53;8.55;;;3.50;;
69991;SDS011;57332;51.320;-0.580;2023-04-24T08:48:23;10.55;;;4.30;;
69991;SDS011;57332;51.320;-0.580;2023-04-24T08:50:57;8.32;;;3.33;;
69991;SDS011;57332;51.320;-0.580;2023-04-24T08:53:25;5.50;;;2.90;;
69991;SDS011;57332;51.320;-0.580;2023-04-24T08:55:52;8.93;;;3.65;;
69991;SDS011;57332;51.320;-0.580;2023-04-24T08:58:20;9.95;;;4.30;;
69991;SDS011;57332;51.320;-0.580;2023-04-24T09:00:48;11.45;;;4.63;;
69991;SDS011;57332;51.320;-0.580;2023-04-24T09:03:15;9.98;;;4.50;;
69991;SDS011;57332;51.320;-0.580;2023-04-24T09:05:44;9.60;;;4.68;;
69991;SDS011;57332;51.320;-0.580;2023-04-24T09:08:12;10.65;;;5.10;;
69991;SDS011;57332;51.320;-0.580;2023-04-24T09:10:40;9.93;;;5.00;;
69991;SDS011;57332;51.320;-0.580;2023-04-24T09:13:07;12.43;;;5.32;;
69991;SDS011;57332;51.320;-0.580;2023-04-24T09:15:38;11.43;;;5.47;;
69991;SDS011;57332;51.320;-0.580;2023-04-24T09:18:05;8.52;;;4.88;;
69991;SDS011;57332;51.320;-0.580;2023-04-24T09:20:32;12.93;;;5.28;;
69991;SDS011;57332;51.320;-0.580;2023-04-24T09:22:59;10.32;;;5.20;;
69991;SDS011;57332;51.320;-0.580;2023-04-24T09:25:33;10.57;;;5.55;;
69991;SDS011;57332;51.320;-0.580;2023-04-24T09:28:03;11.70;;;5.70;;
69991;SDS011;57332;51.320;-0.580;2023-04-24T09:30:30;11.45;;;5.57;;
69991;SDS011;57332;51.320;-0.580;2023-04-24T09:33:14;9.13;;;4.60;;
69991;SDS011;57332;51.320;-0.580;2023-04-24T09:35:41;8.35;;;4.15;;
69991;SDS011;57332;51.320;-0.580;2023-04-24T09:38:09;9.57;;;4.80;;
69991;SDS011;57332;51.320;-0.580;2023-04-24T09:40:37;9.05;;;4.50;;
69991;SDS011;57332;51.320;-0.580;2023-04-24T09:43:09;8.75;;;4.78;;
69991;SDS011;57332;51.320;-0.580;2023-04-24T09:45:37;6.90;;;4.10;;
69991;SDS011;57332;51.320;-0.580;2023-04-24T09:48:04;8.88;;;4.25;;
69991;SDS011;57332;51.320;-0.580;2023-04-24T09:50:33;12.00;;;5.30;;
69991;SDS011;57332;51.320;-0.580;2023-04-24T09:53:01;9.65;;;5.60;;
69991;SDS011;57332;51.320;-0.580;2023-04-24T09:55:29;12.07;;;5.40;;
69991;SDS011;57332;51.320;-0.580;2023-04-24T09:57:56;8.98;;;5.00;;
69991;SDS011;57332;51.320;-0.580;2023-04-24T10:00:28;12.30;;;4.93;;
69991;SDS011;57332;51.320;-0.580;2023-04-24T10:02:56;8.40;;;5.15;;
69991;SDS011;57332;51.320;-0.580;2023-04-24T10:05:23;9.30;;;4.68;;
69991;SDS011;57332;51.320;-0.580;2023-04-24T10:07:51;8.65;;;4.88;;
69991;SDS011;57332;51.320;-0.580;2023-04-24T10:10:18;9.05;;;5.22;;
69991;SDS011;57332;51.320;-0.580;2023-04-24T10:12:45;10.27;;;5.13;;
69991;SDS011;57332;51.320;-0.580;2023-04-24T10:15:12;10.75;;;5.47;;
69991;SDS011;57332;51.320;-0.580;2023-04-24T10:17:40;10.32;;;5.63;;
69991;SDS011;57332;51.320;-0.580;2023-04-24T10:20:07;10.13;;;5.00;;
69991;SDS011;57332;51.320;-0.580;2023-04-24T10:22:34;11.38;;;5.15;;
69991;SDS011;57332;51.320;-0.580;2023-04-24T10:25:02;10.43;;;5.20;;
69991;SDS011;57332;51.320;-0.580;2023-04-24T10:27:30;11.80;;;4.63;;
69991;SDS011;57332;51.320;-0.580;2023-04-24T10:29:57;7.00;;;4.70;;
69991;SDS011;57332;51.320;-0.580;2023-04-24T10:32:24;9.88;;;5.05;;
69991;SDS011;57332;51.320;-0.580;2023-04-24T10:34:53;9.15;;;4.90;;
69991;SDS011;57332;51.320;-0.580;2023-04-24T10:37:22;10.57;;;5.07;;
69991;SDS011;57332;51.320;-0.580;2023-04-24T10:39:49;8.35;;;4.68;;
69991;SDS011;57332;51.320;-0.580;2023-04-24T10:42:17;7.80;;;4.15;;
69991;SDS011;57332;51.320;-0.580;2023-04-24T10:44:46;8.95;;;4.57;;
69991;SDS011;57332;51.320;-0.580;2023-04-24T10:47:13;8.38;;;4.45;;
69991;SDS011;57332;51.320;-0.580;2023-04-24T10:49:43;9.15;;;4.43;;
69991;SDS011;57332;51.320;-0.580;2023-04-24T10:52:10;8.02;;;4.88;;
69991;SDS011;57332;51.320;-0.580;2023-04-24T10:54:41;7.85;;;4.18;;
69991;SDS011;57332;51.320;-0.580;2023-04-24T11:00:31;7.97;;;4.50;;
69991;SDS011;57332;51.320;-0.580;2023-04-24T11:02:36;9.13;;;4.70;;
69991;SDS011;57332;51.320;-0.580;2023-04-24T11:05:04;7.72;;;4.95;;
69991;SDS011;57332;51.320;-0.580;2023-04-24T11:08:09;7.43;;;4.50;;
69991;SDS011;57332;51.320;-0.580;2023-04-24T11:10:27;9.43;;;4.55;;
69991;SDS011;57332;51.320;-0.580;2023-04-24T11:12:54;8.45;;;4.38;;
69991;SDS011;57332;51.320;-0.580;2023-04-24T11:15:21;7.05;;;4.55;;
69991;SDS011;57332;51.320;-0.580;2023-04-24T11:17:48;8.90;;;4.25;;
69991;SDS011;57332;51.320;-0.580;2023-04-24T11:20:16;8.80;;;4.38;;
69991;SDS011;57332;51.320;-0.580;2023-04-24T11:22:54;7.28;;;4.30;;
69991;SDS011;57332;51.320;-0.580;2023-04-24T11:25:22;9.05;;;4.45;;
69991;SDS011;57332;51.320;-0.580;2023-04-24T11:27:49;6.93;;;3.90;;
69991;SDS011;57332;51.320;-0.580;2023-04-24T11:30:20;7.63;;;3.95;;
69991;SDS011;57332;51.320;-0.580;2023-04-24T11:32:47;7.65;;;4.00;;
69991;SDS011;57332;51.320;-0.580;2023-04-24T11:35:19;7.55;;;3.83;;
69991;SDS011;57332;51.320;-0.580;2023-04-24T11:37:48;8.43;;;4.05;;
69991;SDS011;57332;51.320;-0.580;2023-04-24T11:40:21;8.85;;;4.30;;
69991;SDS011;57332;51.320;-0.580;2023-04-24T11:42:50;6.60;;;4.25;;
69991;SDS011;57332;51.320;-0.580;2023-04-24T11:45:24;7.05;;;4.28;;
69991;SDS011;57332;51.320;-0.580;2023-04-24T11:47:51;7.60;;;4.43;;
69991;SDS011;57332;51.320;-0.580;2023-04-24T11:50:19;8.75;;;4.07;;
69991;SDS011;57332;51.320;-0.580;2023-04-24T11:52:47;7.88;;;4.20;;
69991;SDS011;57332;51.320;-0.580;2023-04-24T12:00:18;7.88;;;4.60;;
69991;SDS011;57332;51.320;-0.580;2023-04-24T12:02:45;10.85;;;4.60;;
69991;SDS011;57332;51.320;-0.580;2023-04-24T12:05:26;8.45;;;3.92;;
69991;SDS011;57332;51.320;-0.580;2023-04-24T12:07:53;9.13;;;4.53;;
69991;SDS011;57332;51.320;-0.580;2023-04-24T12:10:24;7.30;;;4.22;;
69991;SDS011;57332;51.320;-0.580;2023-04-24T12:12:52;6.50;;;4.20;;
69991;SDS011;57332;51.320;-0.580;2023-04-24T12:15:19;8.25;;;4.40;;
69991;SDS011;57332;51.320;-0.580;2023-04-24T12:17:47;7.75;;;4.07;;
69991;SDS011;57332;51.320;-0.580;2023-04-24T12:20:14;7.72;;;4.25;;
69991;SDS011;57332;51.320;-0.580;2023-04-24T12:22:45;6.93;;;4.35;;
69991;SDS011;57332;51.320;-0.580;2023-04-24T12:25:13;9.27;;;4.05;;
69991;SDS011;57332;51.320;-0.580;2023-04-24T12:27:41;7.25;;;4.28;;
69991;SDS011;57332;51.320;-0.580;2023-04-24T12:30:11;6.40;;;3.60;;
69991;SDS011;57332;51.320;-0.580;2023-04-24T12:32:48;8.30;;;4.18;;
69991;SDS011;57332;51.320;-0.580;2023-04-24T12:35:19;8.07;;;4.05;;
69991;SDS011;57332;51.320;-0.580;2023-04-24T12:37:47;8.07;;;4.35;;
69991;SDS011;57332;51.320;-0.580;2023-04-24T12:40:14;7.13;;;3.85;;
69991;SDS011;57332;51.320;-0.580;2023-04-24T12:42:48;6.90;;;4.15;;
69991;SDS011;57332;51.320;-0.580;2023-04-24T12:45:16;7.22;;;4.15;;
69991;SDS011;57332;51.320;-0.580;2023-04-24T12:47:44;6.82;;;3.92;;
69991;SDS011;57332;51.320;-0.580;2023-04-24T12:50:14;7.57;;;4.50;;
69991;SDS011;57332;51.320;-0.580;2023-04-24T12:52:42;7.82;;;4.07;;
69991;SDS011;57332;51.320;-0.580;2023-04-24T12:55:09;8.45;;;4.30;;
69991;SDS011;57332;51.320;-0.580;2023-04-24T12:57:37;6.50;;;3.92;;
69991;SDS011;57332;51.320;-0.580;2023-04-24T13:00:04;7.47;;;4.07;;
69991;SDS011;57332;51.320;-0.580;2023-04-24T13:02:31;7.90;;;4.10;;
69991;SDS011;57332;51.320;-0.580;2023-04-24T13:04:58;8.45;;;4.43;;
69991;SDS011;57332;51.320;-0.580;2023-04-24T13:07:25;6.82;;;3.90;;
69991;SDS011;57332;51.320;-0.580;2023-04-24T13:09:53;6.72;;;3.40;;
69991;SDS011;57332;51.320;-0.580;2023-04-24T13:12:20;5.95;;;3.85;;
69991;SDS011;57332;51.320;-0.580;2023-04-24T13:14:47;8.07;;;4.13;;
69991;SDS011;57332;51.320;-0.580;2023-04-24T13:17:14;7.22;;;3.70;;
69991;SDS011;57332;51.320;-0.580;2023-04-24T13:19:42;7.35;;;3.70;;
69991;SDS011;57332;51.320;-0.580;2023-04-24T13:22:10;8.15;;;3.60;;
69991;SDS011;57332;51.320;-0.580;2023-04-24T13:24:37;8.88;;;3.97;;
69991;SDS011;57332;51.320;-0.580;2023-04-24T13:27:06;6.20;;;3.58;;
69991;SDS011;57332;51.320;-0.580;2023-04-24T13:29:33;10.00;;;4.20;;
69991;SDS011;57332;51.320;-0.580;2023-04-24T13:32:00;9.52;;;4.53;;
69991;SDS011;57332;51.320;-0.580;2023-04-24T13:34:27;8.27;;;4.13;;
69991;SDS011;57332;51.320;-0.580;2023-04-24T13:36:55;7.68;;;3.80;;
69991;SDS011;57332;51.320;-0.580;2023-04-24T13:39:22;9.82;;;4.35;;
69991;SDS011;57332;51.320;-0.580;2023-04-24T13:41:50;7.53;;;4.18;;
69991;SDS011;57332;51.320;-0.580;2023-04-24T13:44:17;7.18;;;3.70;;
69991;SDS011;57332;51.320;-0.580;2023-04-24T13:46:45;6.82;;;3.45;;
69991;SDS011;57332;51.320;-0.580;2023-04-24T13:49:12;8.57;;;4.38;;
69991;SDS011;57332;51.320;-0.580;2023-04-24T13:51:40;7.40;;;4.18;;
69991;SDS011;57332;51.320;-0.580;2023-04-24T13:54:07;7.82;;;4.60;;
69991;SDS011;57332;51.320;-0.580;2023-04-24T13:56:34;6.07;;;3.60;;
69991;SDS011;57332;51.320;-0.580;2023-04-24T13:59:01;7.53;;;4.07;;
69991;SDS011;57332;51.320;-0.580;2023-04-24T14:01:28;8.27;;;4.05;;
69991;SDS011;57332;51.320;-0.580;2023-04-24T14:03:55;4.18;;;2.55;;
69991;SDS011;57332;51.320;-0.580;2023-04-24T14:06:23;4.45;;;2.72;;
69991;SDS011;57332;51.320;-0.580;2023-04-24T14:08:50;4.47;;;2.67;;
69991;SDS011;57332;51.320;-0.580;2023-04-24T14:11:17;4.80;;;2.58;;
69991;SDS011;57332;51.320;-0.580;2023-04-24T14:13:45;5.38;;;3.13;;
69991;SDS011;57332;51.320;-0.580;2023-04-24T14:16:12;5.45;;;3.10;;
69991;SDS011;57332;51.320;-0.580;2023-04-24T14:18:39;7.70;;;3.33;;
69991;SDS011;57332;51.320;-0.580;2023-04-24T14:21:06;8.60;;;3.72;;
69991;SDS011;57332;51.320;-0.580;2023-04-24T14:23:34;10.98;;;4.55;;
69991;SDS011;57332;51.320;-0.580;2023-04-24T14:26:01;10.27;;;4.03;;
69991;SDS011;57332;51.320;-0.580;2023-04-24T14:28:27;9.23;;;4.22;;
69991;SDS011;57332;51.320;-0.580;2023-04-24T14:30:54;7.10;;;3.78;;
69991;SDS011;57332;51.320;-0.580;2023-04-24T14:33:21;6.80;;;3.50;;
69991;SDS011;57332;51.320;-0.580;2023-04-24T14:35:48;7.43;;;4.15;;
69991;SDS011;57332;51.320;-0.580;2023-04-24T14:38:15;7.63;;;4.30;;